Winscombe, United Kingdom
Current Conditions -  °F | °C
As of 9:50 PM on Tuesday 25 Nov 2014 (Local Time) from EGGD Reporting Station
Light Rain Light Rain  
Wind Chill: 32°   Ceiling: 100
Heat Index: 39°   Visibility: 0.25mi
Dew Point: 39°   Wind: 10mph
Humidity: 100%   Direction: 30°NNE
Pressure: 30"   Gusts: NA
Location:  51.31°N, 2.83°W
Report Text: EGGD 252150Z 03009KT 0400 R27/1100 -RADZ FG OVC001 04/04 Q1016
Loading
Personal Weather Stations






























Interactive Weather Map New forecast layout! Learn more

10-Day Weather Forecast

Advertisements
Track Severe Weather on mobile